MSC Ingrid — HOHA — position and weather

sailwx.info

Track history (hours):
 
Tides and Currents Weather Stations Pressure Air Temp Water Temp Dewpoint Dewpoint Depression Visibility Wind Speed Wind Dir Waves Ship Positions

MSC Ingrid

Last reported at 2014-Dec-15 13:33 UTC. Time now 2014-Dec-22 12:46 UTC.
Position N 32°05' W 081°05'.

Length 294 m; draft 8.4 m.

Type: Ship (hazmat cat A). MMSI: 354505000.

Date/timePositionNaut miles runAvg speedWind from/ knotsBaromVisibWave heightAir tempDewpointWater temp
2014-Dec-15 13:33N 32°05' W 081°05'4 3.8
2014-Dec-15 12:25N 32°08' W 081°08'0 0.0
2014-Dec-15 11:32N 32°08' W 081°08'0 0.0
2014-Dec-15 10:31N 32°08' W 081°08'0 0.0
2014-Dec-15 09:29N 32°08' W 081°08'0 0.0
2014-Dec-15 05:07N 32°08' W 081°08'0 0.0
2014-Dec-15 01:28N 32°08' W 081°08'0 0.0
2014-Dec-14 22:27N 32°08' W 081°08'3 3.2
2014-Dec-14 21:33N 32°06' W 081°06'6 5.4
2014-Dec-14 20:31N 32°06' W 080°60'42512.5
2014-Dec-13 10:33N 37°59' W 076°11'4619.2
2014-Dec-13 08:09N 38°44' W 076°26'1219.8
2014-Dec-13 07:33N 38°55' W 076°23'1414.4
2014-Dec-13 06:33N 39°09' W 076°25'9 8.7
2014-Dec-13 05:33N 39°15' W 076°33'1 0.6
2014-Dec-13 04:34N 39°15' W 076°33'0 0.0
2014-Dec-13 03:33N 39°15' W 076°33'0 0.0
2014-Dec-13 02:33N 39°15' W 076°32'0 0.0
2014-Dec-13 01:33N 39°15' W 076°33'0 0.0
2014-Dec-13 00:33N 39°15' W 076°33'0 0.0
2014-Dec-12 23:33N 39°15' W 076°32'0 0.0
2014-Dec-12 22:33N 39°15' W 076°32'0 0.0
2014-Dec-12 21:33N 39°15' W 076°33'0 0.0
2014-Dec-12 20:33N 39°15' W 076°32'0 0.0
2014-Dec-12 19:33N 39°15' W 076°32'0 0.0
2014-Dec-12 18:33N 39°15' W 076°32'0 0.0
2014-Dec-12 17:33N 39°15' W 076°32'0 0.0
2014-Dec-12 16:30N 39°15' W 076°33'0 0.0
2014-Dec-12 15:33N 39°15' W 076°32'4 3.9
2014-Dec-12 14:33N 39°12' W 076°30'1111.4
2014-Dec-12 13:33N 39°02' W 076°23'1615.6
2014-Dec-12 12:33N 38°46' W 076°26'4417.9
2014-Dec-12 10:08N 38°04' W 076°13'1018.4
2014-Dec-12 09:33N 37°54' W 076°09'  
Track history (hours):
 
Tides and Currents Weather Stations Pressure Air Temp Water Temp Dewpoint Dewpoint Depression Visibility Wind Speed Wind Dir Waves Ship Positions

MSC Ingrid

Last reported at 2014-Dec-15 13:33 UTC. Time now 2014-Dec-22 12:46 UTC.
Position N 32°05' W 081°05'.

Length 294 m; draft 8.4 m.

Type: Ship (hazmat cat A). MMSI: 354505000.

Date/timePositionNaut miles runAvg speedWind from/ knotsBaromVisibWave heightAir tempDewpointWater temp
2014-Dec-15 13:33N 32°05' W 081°05'4 3.8
2014-Dec-15 12:25N 32°08' W 081°08'0 0.0
2014-Dec-15 11:32N 32°08' W 081°08'0 0.0
2014-Dec-15 10:31N 32°08' W 081°08'0 0.0
2014-Dec-15 09:29N 32°08' W 081°08'0 0.0
2014-Dec-15 05:07N 32°08' W 081°08'0 0.0
2014-Dec-15 01:28N 32°08' W 081°08'0 0.0
2014-Dec-14 22:27N 32°08' W 081°08'3 3.2
2014-Dec-14 21:33N 32°06' W 081°06'6 5.4
2014-Dec-14 20:31N 32°06' W 080°60'42512.5
2014-Dec-13 10:33N 37°59' W 076°11'4619.2
2014-Dec-13 08:09N 38°44' W 076°26'1219.8
2014-Dec-13 07:33N 38°55' W 076°23'1414.4
2014-Dec-13 06:33N 39°09' W 076°25'9 8.7
2014-Dec-13 05:33N 39°15' W 076°33'1 0.6
2014-Dec-13 04:34N 39°15' W 076°33'0 0.0
2014-Dec-13 03:33N 39°15' W 076°33'0 0.0
2014-Dec-13 02:33N 39°15' W 076°32'0 0.0
2014-Dec-13 01:33N 39°15' W 076°33'0 0.0
2014-Dec-13 00:33N 39°15' W 076°33'0 0.0
2014-Dec-12 23:33N 39°15' W 076°32'0 0.0
2014-Dec-12 22:33N 39°15' W 076°32'0 0.0
2014-Dec-12 21:33N 39°15' W 076°33'0 0.0
2014-Dec-12 20:33N 39°15' W 076°32'0 0.0
2014-Dec-12 19:33N 39°15' W 076°32'0 0.0
2014-Dec-12 18:33N 39°15' W 076°32'0 0.0
2014-Dec-12 17:33N 39°15' W 076°32'0 0.0
2014-Dec-12 16:30N 39°15' W 076°33'0 0.0
2014-Dec-12 15:33N 39°15' W 076°32'4 3.9
2014-Dec-12 14:33N 39°12' W 076°30'1111.4
2014-Dec-12 13:33N 39°02' W 076°23'1615.6
2014-Dec-12 12:33N 38°46' W 076°26'4417.9
2014-Dec-12 10:08N 38°04' W 076°13'1018.4
2014-Dec-12 09:33N 37°54' W 076°09'  

Dump ship's entire track history